Date,TemperatureHighF,TemperatureAvgF,TemperatureLowF,DewpointHighF,DewpointAvgF,DewpointLowF,HumidityHigh,HumidityAvg,HumidityLow,PressureMaxIn,PressureMinIn,WindSpeedMaxMPH,WindSpeedAvgMPH,GustSpeedMaxMPH,PrecipitationSumIn
2013-1-1,62.0,62.0,62.0,41.0,41.0,41.0,46,46,46,29.64,29.64,0,0,0,0.00
2013-1-2,62.0,62.0,62.0,41.0,41.0,41.0,46,46,46,29.64,29.64,0,0,0,0.00
2013-1-3,62.0,62.0,62.0,41.0,41.0,41.0,46,46,46,29.64,29.64,0,0,0,0.00
2013-1-4,62.0,62.0,62.0,41.0,41.0,41.0,46,46,46,29.64,29.64,0,0,0,0.00
2013-1-5,62.0,62.0,62.0,41.0,41.0,41.0,46,46,46,29.64,29.64,0,0,0,0.00
2013-1-6,62.0,62.0,62.0,41.0,41.0,41.0,46,46,46,29.64,29.64,0,0,0,0.00
2013-1-7,62.0,62.0,62.0,41.0,41.0,41.0,46,46,46,29.64,29.64,0,0,0,0.00
2013-1-8,62.0,62.0,62.0,41.0,41.0,41.0,46,46,46,29.64,29.64,0,0,0,0.00
2013-1-9,62.0,62.0,62.0,41.0,41.0,41.0,46,46,46,29.64,29.64,0,0,0,0.00
2013-8-31,76.0,75.2,75.0,72.9,71.5,70.9,90,88,87,29.92,29.90,5,3,5,0.00
2013-9-2,87.0,80.7,73.0,73.4,69.4,64.0,91,70,48,29.93,29.81,13,5,13,0.02
2013-9-3,80.0,71.9,61.0,70.8,60.4,51.7,99,70,40,30.09,29.84,20,7,20,0.00
2013-9-4,80.0,65.5,52.0,59.6,54.4,44.8,97,72,33,30.22,30.09,16,5,16,0.00
2013-9-5,78.0,66.0,55.0,62.9,55.7,47.8,98,73,37,30.26,30.12,21,7,21,0.00
2013-9-6,74.0,60.0,48.0,54.6,48.3,39.7,97,70,31,30.40,30.24,12,4,12,0.00
2013-9-7,79.0,62.7,48.0,63.1,53.8,47.0,97,76,42,30.26,30.04,12,3,12,0.00
2013-9-8,82.0,70.1,60.0,66.3,61.2,53.5,98,76,53,30.17,29.98,15,5,15,0.06
2013-9-9,75.0,66.4,57.0,65.6,55.2,41.9,86,68,43,30.32,30.17,17,6,17,0.00
2013-9-10,89.0,77.0,66.0,72.3,68.6,65.3,99,77,51,30.27,30.15,16,7,16,0.00
2013-9-11,90.0,79.6,69.0,74.8,71.0,68.5,99,77,51,30.25,30.08,13,4,16,0.00
2013-9-12,88.0,76.1,67.0,72.4,67.4,59.8,99,77,45,30.10,29.83,21,6,21,0.00
2013-9-13,74.0,65.8,56.0,64.8,54.9,45.7,98,70,39,30.08,29.84,25,10,25,0.00
2013-9-14,66.0,54.6,43.0,48.6,45.2,41.6,97,74,43,30.29,30.07,18,6,18,0.00
2013-9-15,75.0,59.1,41.0,57.6,49.5,39.9,97,74,44,30.35,30.16,15,5,15,0.00
2013-9-16,71.0,62.1,52.0,59.9,56.5,51.2,98,83,54,30.35,30.12,20,6,20,0.12
2013-9-17,69.0,55.5,43.0,53.2,44.2,35.3,97,70,32,30.55,30.35,13,4,13,0.00
2013-9-18,69.0,55.9,41.0,50.9,46.1,39.9,97,72,43,30.44,30.28,12,5,12,0.00
2013-9-19,76.0,61.5,48.0,60.3,53.4,46.3,97,77,48,30.30,30.17,12,4,12,0.00
2013-9-20,78.0,66.4,56.0,62.3,58.9,55.2,98,79,53,30.19,30.04,15,6,15,0.00
2013-9-21,68.0,64.1,60.0,65.7,61.6,59.4,99,92,77,30.05,28.88,24,11,24,0.56
2013-9-22,70.0,59.9,48.0,59.4,52.6,44.0,98,80,44,30.00,29.75,20,6,20,0.00
2013-9-23,64.0,54.5,44.0,51.2,46.2,40.5,97,77,45,30.12,29.99,17,6,17,0.00
2013-9-24,71.0,53.2,39.0,52.7,45.3,38.0,97,79,38,30.16,29.96,13,4,13,0.00
2013-9-25,75.0,55.6,40.0,54.8,46.3,39.0,97,76,30,30.03,29.89,13,4,13,0.00
2013-9-26,74.0,56.5,44.0,55.5,49.4,43.2,97,81,42,30.10,29.96,12,3,12,0.00
2013-9-27,70.0,58.1,47.0,58.4,53.8,46.2,98,87,61,30.24,30.10,10,3,10,0.00
2013-9-28,67.0,59.6,50.0,57.8,53.8,49.2,98,83,56,30.34,30.23,12,4,12,0.00
2013-9-29,72.0,55.6,42.0,59.1,48.8,40.9,98,81,39,30.25,30.06,13,3,13,0.00
2013-9-30,75.0,59.8,46.0,58.3,51.6,45.2,98,78,41,30.11,29.98,12,3,12,0.00
2013-10-1,79.0,64.0,50.0,62.4,56.0,49.2,98,79,45,30.09,29.97,16,4,16,0.00
2013-10-2,82.0,67.4,55.0,62.0,58.1,54.2,98,76,42,30.10,29.99,17,5,17,0.00
2013-10-3,82.0,67.7,54.0,65.0,60.2,53.2,98,80,48,30.14,30.02,10,3,10,0.00
2013-10-4,84.0,69.9,59.0,65.8,62.6,58.4,98,81,47,30.10,30.00,12,4,12,0.00
2013-10-5,85.0,72.4,60.0,66.3,63.3,59.4,99,76,44,30.10,29.99,16,4,16,0.00
2013-10-6,86.0,74.9,64.0,67.9,63.5,58.2,99,71,40,30.01,29.88,25,9,25,0.00
2013-10-7,73.0,63.9,51.0,69.1,58.5,44.9,99,84,59,30.08,29.74,26,11,26,0.55
2013-10-8,69.0,55.3,42.0,50.9,45.2,40.9,97,72,38,30.32,30.08,17,5,17,0.00
2013-10-9,61.0,52.4,43.0,51.2,45.5,37.4,97,80,43,30.35,30.26,13,4,13,0.01
2013-10-10,54.0,52.7,51.0,53.2,51.7,49.5,97,96,91,30.26,30.05,13,6,13,3.69
2013-10-11,62.0,56.3,52.0,61.4,55.6,51.2,98,97,97,30.05,29.99,15,6,15,0.85
2013-10-12,69.0,61.8,56.0,61.7,58.3,52.6,98,89,59,30.19,30.00,18,6,18,0.42
2013-10-13,59.0,57.3,56.0,58.4,56.7,55.2,98,98,95,30.33,30.18,10,4,10,0.51
2013-10-14,67.0,58.4,52.0,57.5,54.4,51.2,98,87,66,30.35,30.24,12,4,12,0.00
2013-10-15,70.0,57.5,47.0,59.3,51.7,45.6,98,83,43,30.25,30.08,10,4,10,0.00
2013-10-16,69.0,62.3,55.0,61.9,58.3,47.1,98,87,72,30.08,29.90,12,6,12,0.00
2013-10-17,73.0,64.5,58.0,65.3,60.5,46.3,98,88,65,29.91,29.69,26,7,26,0.10
2013-10-18,64.0,55.5,44.0,47.0,43.0,38.6,97,64,40,30.03,29.86,23,8,23,0.00
2013-10-19,62.0,51.0,39.0,57.4,47.5,38.0,98,88,65,30.02,29.75,21,6,21,0.03
2013-10-20,61.0,50.0,39.0,41.1,37.9,32.9,94,66,37,30.10,29.90,28,7,28,0.00
2013-10-21,66.0,51.6,34.0,45.9,39.9,31.7,97,69,35,30.16,29.92,20,8,20,0.00
2013-10-22,59.0,52.6,36.0,49.6,42.5,32.3,95,70,39,29.92,29.83,20,7,20,0.00
2013-10-23,50.0,42.8,34.0,39.4,36.8,32.7,96,81,55,29.92,29.69,17,6,17,0.01
2013-10-24,49.0,41.4,34.0,36.9,32.4,26.2,94,72,44,30.14,29.92,23,9,23,0.00
2013-10-25,52.0,39.0,26.0,36.2,30.2,24.5,95,73,44,30.31,30.14,24,8,24,0.00
2013-10-26,55.0,44.0,32.0,33.1,28.7,24.8,87,57,31,30.30,29.71,122,7,122,0.00
2013-10-27,57.0,47.1,35.0,37.9,32.8,29.4,89,60,35,30.12,29.92,20,7,20,0.00
2013-10-28,60.0,42.9,28.0,41.0,34.6,26.5,96,76,42,30.27,30.12,10,3,10,0.00
2013-10-29,62.0,45.5,31.0,42.7,37.8,29.7,96,77,44,30.40,30.26,7,3,7,0.00
2013-10-30,69.0,57.4,49.0,56.1,49.5,41.8,97,76,54,30.27,30.10,12,6,12,0.02
2013-10-31,67.0,61.1,56.0,61.2,58.0,55.2,98,90,71,30.14,29.69,24,11,24,0.05
2013-11-1,72.0,63.1,49.0,62.3,53.3,41.8,98,74,35,29.69,29.50,32,10,32,0.35
2013-11-2,62.0,52.0,43.0,50.1,43.8,38.1,97,76,50,29.89,29.65,24,8,24,0.00
2013-11-3,55.0,46.3,32.0,42.8,32.1,19.0,85,60,26,30.46,29.88,23,10,23,0.00
2013-11-4,45.0,34.4,23.0,29.7,24.8,21.3,94,71,40,30.63,30.45,12,3,12,0.00
2013-11-5,53.0,44.4,30.0,44.7,35.4,22.7,90,71,54,30.60,30.40,12,5,12,0.00
2013-11-6,67.0,57.1,47.0,52.0,48.5,42.7,93,74,55,30.41,29.98,23,12,23,0.00
2013-11-7,59.0,52.8,41.0,55.3,43.9,23.6,97,73,45,30.06,29.84,37,13,37,0.22
2013-11-8,48.0,40.7,29.0,32.0,25.5,21.8,86,56,38,30.30,30.05,29,10,29,0.00
2013-11-9,54.0,41.0,24.0,31.7,27.5,22.5,94,63,39,30.34,29.99,20,8,20,0.00
2013-11-10,57.0,49.5,42.0,36.7,29.8,26.2,56,47,35,30.22,29.95,36,14,36,0.00
2013-11-11,56.0,45.2,28.0,34.3,29.6,26.2,93,57,35,30.29,29.98,16,6,16,0.00
2013-11-12,51.0,37.4,28.0,38.9,22.3,12.7,80,55,39,30.40,29.96,26,14,26,0.00
2013-11-13,41.0,33.2,28.0,23.3,19.5,16.1,71,58,38,30.47,30.36,24,11,24,0.00
2013-11-14,57.0,40.1,25.0,22.8,17.9,13.0,70,43,18,30.37,30.19,12,4,12,0.00
2013-11-15,59.0,43.1,25.0,32.1,24.3,14.7,90,53,18,30.28,30.14,12,4,12,0.00
2013-11-16,56.0,49.1,40.0,50.2,45.2,29.1,97,87,46,30.29,30.18,17,7,17,0.01
2013-11-17,62.0,55.9,51.0,60.3,55.1,50.2,98,97,93,30.19,29.65,30,16,30,0.01
2013-11-18,63.0,57.5,48.0,60.3,34.6,24.0,97,45,24,29.94,29.64,32,15,32,0.12
2013-11-19,48.0,40.2,26.0,28.8,25.8,23.5,90,57,44,30.39,29.94,28,14,28,0.00
2013-11-20,45.0,33.5,21.0,27.5,20.9,12.1,94,65,31,30.57,30.38,14,5,14,0.00
2013-11-21,48.0,39.2,29.0,40.2,32.7,23.4,94,78,65,30.58,30.34,13,6,13,0.00
2013-11-22,58.0,50.6,45.0,51.2,46.2,38.6,97,85,71,30.34,30.01,28,5,28,0.00
2013-11-23,52.0,38.9,26.0,44.4,24.9,4.9,79,58,37,30.24,30.05,36,15,36,0.00
2013-11-24,28.0,23.3,19.0,12.8,7.7,3.9,64,51,40,30.52,30.24,34,17,36,0.00
2013-11-25,37.0,25.9,13.0,12.5,9.3,5.4,84,52,29,30.59,30.32,20,9,20,0.00
2013-11-26,34.0,32.4,31.0,31.7,25.7,12.0,95,79,43,30.33,29.86,16,7,16,0.75
2013-11-27,39.0,33.7,26.0,36.0,28.6,14.6,96,82,59,30.07,29.60,34,15,34,0.01
2013-11-28,35.0,28.6,23.0,23.8,15.8,11.7,84,59,44,30.48,30.07,29,11,29,0.00
2013-11-29,39.0,28.4,21.0,24.9,20.4,16.4,93,74,46,30.73,30.47,17,5,17,0.00
2013-11-30,34.0,26.7,16.0,22.1,18.6,14.3,93,73,54,30.75,30.38,14,6,14,0.00
2013-12-1,39.0,32.0,19.0,31.0,25.5,17.3,94,77,61,30.38,30.04,10,3,10,0.00
2013-12-2,44.0,38.0,34.0,36.0,33.0,30.3,96,83,68,30.04,29.89,6,2,6,0.00
2013-12-3,55.0,40.8,33.0,40.2,35.8,31.7,96,84,52,30.00,29.90,8,2,8,0.00
2013-12-4,56.0,45.7,31.0,49.3,41.4,29.7,97,85,65,30.10,29.98,13,5,13,0.00
2013-12-5,66.0,57.4,3.0,59.9,54.9,-1.8,97,92,73,30.06,29.91,15,9,15,0.01
2013-12-6,61.0,45.1,39.0,60.4,44.1,38.0,98,96,93,30.17,29.87,15,8,15,1.57
2013-12-7,39.0,35.0,26.0,38.0,29.5,-56.8,96,82,4,30.58,24.69,122,9,122,0.01
2013-12-8,27.0,24.2,21.0,25.5,21.9,18.0,94,91,81,30.58,30.31,10,4,10,0.35
2013-12-9,36.0,30.8,27.0,34.7,29.5,25.5,95,95,94,30.32,30.03,10,3,10,0.23
2013-12-10,35.0,30.2,20.0,32.7,26.4,13.7,95,86,66,30.21,29.99,22,6,22,0.45
2013-12-11,35.0,25.9,17.0,18.5,15.7,13.0,93,66,43,30.39,30.19,20,6,20,0.06
2013-12-12,29.0,24.4,19.0,22.7,8.9,-0.4,79,53,31,30.41,30.19,23,10,23,0.00
2013-12-13,41.0,28.9,19.0,22.7,13.0,6.2,87,52,36,30.28,30.16,20,6,20,0.03
2013-12-14,36.0,31.5,27.0,33.6,28.6,21.1,95,89,67,30.29,29.81,15,6,15,0.28
2013-12-15,41.0,32.6,28.0,36.0,27.0,21.2,96,80,63,29.90,29.64,31,9,31,0.24
2013-12-16,35.0,29.6,26.0,26.3,22.0,16.9,87,73,62,30.15,29.90,26,8,26,0.00
2013-12-17,37.0,30.2,24.0,32.1,27.5,22.5,95,90,78,30.11,29.90,17,7,17,0.01
2013-12-18,36.0,29.3,22.0,26.2,21.3,18.1,94,73,56,30.19,29.98,22,7,22,0.00
2013-12-19,52.0,38.6,22.0,31.7,25.4,19.0,92,61,37,30.17,30.00,12,6,12,0.00
2013-12-20,54.0,47.1,39.0,35.9,32.0,28.2,73,56,46,30.04,29.92,13,6,13,0.00
2013-12-21,66.0,57.2,47.0,59.0,47.1,35.9,81,69,53,29.95,29.79,20,10,20,0.00
2013-12-22,68.0,63.2,59.0,63.6,59.7,54.9,98,88,76,29.94,29.71,27,11,27,0.17
2013-12-23,59.0,49.8,34.0,58.2,45.2,24.9,98,85,67,30.23,29.86,27,9,27,0.43
2013-12-24,37.0,28.8,20.0,28.7,17.6,4.7,95,63,43,30.46,30.18,31,11,31,0.00
2013-12-25,29.0,22.5,14.0,15.1,11.3,7.9,89,63,50,30.56,30.30,21,8,21,0.00
2013-12-26,44.0,31.1,24.0,26.1,19.2,14.4,82,63,39,30.30,30.15,23,9,23,0.00
2013-12-27,50.0,34.4,22.0,23.4,18.8,13.7,88,57,25,30.36,30.23,18,6,18,0.00
2013-12-28,58.0,44.8,30.0,28.7,23.6,19.6,73,44,28,30.27,30.04,16,6,16,0.00
2013-12-29,49.0,44.2,40.0,45.2,38.0,22.9,97,83,36,30.04,29.52,15,6,15,0.86
2013-12-30,46.0,36.8,24.0,41.7,29.8,19.8,91,76,63,30.15,29.76,26,9,26,0.00
2013-12-31,39.0,29.8,22.0,27.5,20.0,14.8,92,68,45,30.29,30.05,38,9,38,0.00
2014-1-1,46.0,33.1,21.0,29.0,23.3,16.2,93,69,42,30.34,30.07,20,7,20,0.00
2014-1-2,33.0,28.4,23.0,30.7,26.5,21.3,95,92,85,30.08,29.64,9,2,9,0.00